sensor_id;sensor_type;location;lat;lon;timestamp;temperature;humidity
7196;DHT22;3639;51.308;5.624;2023-05-18T00:00:36;7.90;99.90
7196;DHT22;3639;51.308;5.624;2023-05-18T00:03:02;7.80;99.90
7196;DHT22;3639;51.308;5.624;2023-05-18T00:05:28;7.80;99.90
7196;DHT22;3639;51.308;5.624;2023-05-18T00:07:59;7.80;99.90
7196;DHT22;3639;51.308;5.624;2023-05-18T00:10:24;7.80;99.90
7196;DHT22;3639;51.308;5.624;2023-05-18T00:12:50;7.70;99.90
7196;DHT22;3639;51.308;5.624;2023-05-18T00:15:16;7.70;99.90
7196;DHT22;3639;51.308;5.624;2023-05-18T00:17:41;7.60;99.90
7196;DHT22;3639;51.308;5.624;2023-05-18T00:20:07;7.60;99.90
7196;DHT22;3639;51.308;5.624;2023-05-18T00:22:34;7.60;99.90
7196;DHT22;3639;51.308;5.624;2023-05-18T00:25:00;7.60;99.90
7196;DHT22;3639;51.308;5.624;2023-05-18T00:27:25;7.50;99.90
7196;DHT22;3639;51.308;5.624;2023-05-18T00:29:51;7.50;99.90
7196;DHT22;3639;51.308;5.624;2023-05-18T00:32:16;7.40;99.90
7196;DHT22;3639;51.308;5.624;2023-05-18T00:34:42;7.40;99.90
7196;DHT22;3639;51.308;5.624;2023-05-18T00:37:08;7.30;99.90
7196;DHT22;3639;51.308;5.624;2023-05-18T00:39:33;7.30;99.90
7196;DHT22;3639;51.308;5.624;2023-05-18T00:41:59;7.30;99.90
7196;DHT22;3639;51.308;5.624;2023-05-18T00:44:24;7.20;99.90
7196;DHT22;3639;51.308;5.624;2023-05-18T00:46:50;7.20;99.90
7196;DHT22;3639;51.308;5.624;2023-05-18T00:49:16;7.20;99.90
7196;DHT22;3639;51.308;5.624;2023-05-18T00:51:43;7.20;99.90
7196;DHT22;3639;51.308;5.624;2023-05-18T00:54:09;7.20;99.90
7196;DHT22;3639;51.308;5.624;2023-05-18T00:56:36;7.20;99.90
7196;DHT22;3639;51.308;5.624;2023-05-18T00:59:06;7.20;99.90
7196;DHT22;3639;51.308;5.624;2023-05-18T01:01:33;7.10;99.90
7196;DHT22;3639;51.308;5.624;2023-05-18T01:04:00;7.10;99.90
7196;DHT22;3639;51.308;5.624;2023-05-18T01:06:29;7.10;99.90
7196;DHT22;3639;51.308;5.624;2023-05-18T01:09:01;7.10;99.90
7196;DHT22;3639;51.308;5.624;2023-05-18T01:14:08;7.00;99.90
7196;DHT22;3639;51.308;5.624;2023-05-18T01:16:47;7.00;99.90
7196;DHT22;3639;51.308;5.624;2023-05-18T01:19:24;6.90;99.90
7196;DHT22;3639;51.308;5.624;2023-05-18T01:23:01;6.90;99.90
7196;DHT22;3639;51.308;5.624;2023-05-18T01:25:40;6.80;99.90
7196;DHT22;3639;51.308;5.624;2023-05-18T01:28:13;6.80;99.90
7196;DHT22;3639;51.308;5.624;2023-05-18T01:30:41;6.70;99.90
7196;DHT22;3639;51.308;5.624;2023-05-18T01:33:08;6.70;99.90
7196;DHT22;3639;51.308;5.624;2023-05-18T01:35:35;6.60;99.90
7196;DHT22;3639;51.308;5.624;2023-05-18T01:38:02;6.60;99.90
7196;DHT22;3639;51.308;5.624;2023-05-18T01:40:32;6.50;99.90
7196;DHT22;3639;51.308;5.624;2023-05-18T01:43:06;6.60;99.90
7196;DHT22;3639;51.308;5.624;2023-05-18T01:45:35;6.60;99.90
7196;DHT22;3639;51.308;5.624;2023-05-18T01:48:06;6.50;99.90
7196;DHT22;3639;51.308;5.624;2023-05-18T01:50:36;6.50;99.90
7196;DHT22;3639;51.308;5.624;2023-05-18T01:53:25;6.50;99.90
7196;DHT22;3639;51.308;5.624;2023-05-18T01:55:53;6.50;99.90
7196;DHT22;3639;51.308;5.624;2023-05-18T01:58:20;6.50;99.90
7196;DHT22;3639;51.308;5.624;2023-05-18T02:00:46;6.50;99.90
7196;DHT22;3639;51.308;5.624;2023-05-18T02:03:12;6.50;99.90
7196;DHT22;3639;51.308;5.624;2023-05-18T02:05:38;6.40;99.90
7196;DHT22;3639;51.308;5.624;2023-05-18T02:08:04;6.40;99.90
7196;DHT22;3639;51.308;5.624;2023-05-18T02:10:30;6.40;99.90
7196;DHT22;3639;51.308;5.624;2023-05-18T02:12:56;6.40;99.90
7196;DHT22;3639;51.308;5.624;2023-05-18T02:15:21;6.30;99.90
7196;DHT22;3639;51.308;5.624;2023-05-18T02:17:47;6.30;99.90
7196;DHT22;3639;51.308;5.624;2023-05-18T02:20:13;6.30;99.90
7196;DHT22;3639;51.308;5.624;2023-05-18T02:22:43;6.20;99.90
7196;DHT22;3639;51.308;5.624;2023-05-18T02:25:10;6.20;99.90
7196;DHT22;3639;51.308;5.624;2023-05-18T02:27:35;6.20;99.90
7196;DHT22;3639;51.308;5.624;2023-05-18T02:30:04;6.20;99.90
7196;DHT22;3639;51.308;5.624;2023-05-18T02:32:31;6.20;99.90
7196;DHT22;3639;51.308;5.624;2023-05-18T02:35:05;6.10;99.90
7196;DHT22;3639;51.308;5.624;2023-05-18T02:37:30;6.10;99.90
7196;DHT22;3639;51.308;5.624;2023-05-18T02:39:59;6.10;99.90
7196;DHT22;3639;51.308;5.624;2023-05-18T02:42:25;6.10;99.90
7196;DHT22;3639;51.308;5.624;2023-05-18T02:44:50;6.00;99.90
7196;DHT22;3639;51.308;5.624;2023-05-18T02:47:16;6.00;99.90
7196;DHT22;3639;51.308;5.624;2023-05-18T02:49:41;6.00;99.90
7196;DHT22;3639;51.308;5.624;2023-05-18T02:52:07;6.00;99.90
7196;DHT22;3639;51.308;5.624;2023-05-18T02:54:32;5.90;99.90
7196;DHT22;3639;51.308;5.624;2023-05-18T02:56:58;5.90;99.90
7196;DHT22;3639;51.308;5.624;2023-05-18T02:59:23;5.90;99.90
7196;DHT22;3639;51.308;5.624;2023-05-18T03:01:49;5.90;99.90
7196;DHT22;3639;51.308;5.624;2023-05-18T03:04:15;5.80;99.90
7196;DHT22;3639;51.308;5.624;2023-05-18T03:06:41;5.80;99.90
7196;DHT22;3639;51.308;5.624;2023-05-18T03:09:06;5.80;99.90
7196;DHT22;3639;51.308;5.624;2023-05-18T03:11:32;5.80;99.90
7196;DHT22;3639;51.308;5.624;2023-05-18T03:13:58;5.80;99.90
7196;DHT22;3639;51.308;5.624;2023-05-18T03:16:23;5.80;99.90
7196;DHT22;3639;51.308;5.624;2023-05-18T03:18:54;5.80;99.90
7196;DHT22;3639;51.308;5.624;2023-05-18T03:21:20;5.80;99.90
7196;DHT22;3639;51.308;5.624;2023-05-18T03:23:46;5.80;99.90
7196;DHT22;3639;51.308;5.624;2023-05-18T03:26:11;5.80;99.90
7196;DHT22;3639;51.308;5.624;2023-05-18T03:28:38;5.80;99.90
7196;DHT22;3639;51.308;5.624;2023-05-18T03:31:03;5.90;99.90
7196;DHT22;3639;51.308;5.624;2023-05-18T03:33:29;5.90;99.90
7196;DHT22;3639;51.308;5.624;2023-05-18T03:35:54;5.80;99.90
7196;DHT22;3639;51.308;5.624;2023-05-18T03:38:20;5.90;99.90
7196;DHT22;3639;51.308;5.624;2023-05-18T03:40:46;5.90;99.90
7196;DHT22;3639;51.308;5.624;2023-05-18T03:43:11;5.90;99.90
7196;DHT22;3639;51.308;5.624;2023-05-18T03:45:37;5.90;99.90
7196;DHT22;3639;51.308;5.624;2023-05-18T03:48:02;5.90;99.90
7196;DHT22;3639;51.308;5.624;2023-05-18T03:50:28;6.00;99.90
7196;DHT22;3639;51.308;5.624;2023-05-18T03:52:53;5.90;99.90
7196;DHT22;3639;51.308;5.624;2023-05-18T03:55:20;5.90;99.90
7196;DHT22;3639;51.308;5.624;2023-05-18T03:57:46;5.90;99.90
7196;DHT22;3639;51.308;5.624;2023-05-18T04:00:12;5.90;99.90
7196;DHT22;3639;51.308;5.624;2023-05-18T04:02:38;5.90;99.90
7196;DHT22;3639;51.308;5.624;2023-05-18T04:05:05;6.00;99.90
7196;DHT22;3639;51.308;5.624;2023-05-18T04:07:31;6.00;99.90
7196;DHT22;3639;51.308;5.624;2023-05-18T04:09:56;5.90;99.90
7196;DHT22;3639;51.308;5.624;2023-05-18T04:12:22;6.00;99.90
7196;DHT22;3639;51.308;5.624;2023-05-18T04:14:48;6.00;99.90
7196;DHT22;3639;51.308;5.624;2023-05-18T04:17:18;6.00;99.90
7196;DHT22;3639;51.308;5.624;2023-05-18T04:19:46;6.00;99.90
7196;DHT22;3639;51.308;5.624;2023-05-18T04:22:12;6.10;99.90
7196;DHT22;3639;51.308;5.624;2023-05-18T04:24:38;6.00;99.90
7196;DHT22;3639;51.308;5.624;2023-05-18T04:27:06;6.10;99.90
7196;DHT22;3639;51.308;5.624;2023-05-18T04:29:33;6.10;99.90
7196;DHT22;3639;51.308;5.624;2023-05-18T04:31:58;6.10;99.90
7196;DHT22;3639;51.308;5.624;2023-05-18T04:34:28;6.10;99.90
7196;DHT22;3639;51.308;5.624;2023-05-18T04:36:54;6.20;99.90
7196;DHT22;3639;51.308;5.624;2023-05-18T04:39:21;6.30;99.90
7196;DHT22;3639;51.308;5.624;2023-05-18T04:41:50;6.30;99.90
7196;DHT22;3639;51.308;5.624;2023-05-18T04:44:26;6.30;99.90
7196;DHT22;3639;51.308;5.624;2023-05-18T04:46:53;6.40;99.90
7196;DHT22;3639;51.308;5.624;2023-05-18T04:49:20;6.40;99.90
7196;DHT22;3639;51.308;5.624;2023-05-18T04:51:52;6.40;99.90
7196;DHT22;3639;51.308;5.624;2023-05-18T04:54:29;6.50;99.90
7196;DHT22;3639;51.308;5.624;2023-05-18T04:56:57;6.60;99.90
7196;DHT22;3639;51.308;5.624;2023-05-18T04:59:22;6.60;99.90
7196;DHT22;3639;51.308;5.624;2023-05-18T05:01:51;6.60;99.90
7196;DHT22;3639;51.308;5.624;2023-05-18T05:04:18;6.60;99.90
7196;DHT22;3639;51.308;5.624;2023-05-18T05:06:44;6.70;99.90
7196;DHT22;3639;51.308;5.624;2023-05-18T05:09:09;6.80;99.90
7196;DHT22;3639;51.308;5.624;2023-05-18T05:11:38;6.80;99.90
7196;DHT22;3639;51.308;5.624;2023-05-18T05:14:03;6.90;99.90
7196;DHT22;3639;51.308;5.624;2023-05-18T05:16:29;6.90;99.90
7196;DHT22;3639;51.308;5.624;2023-05-18T05:18:55;6.90;99.90
7196;DHT22;3639;51.308;5.624;2023-05-18T05:21:20;7.00;99.90
7196;DHT22;3639;51.308;5.624;2023-05-18T05:23:46;7.10;99.90
7196;DHT22;3639;51.308;5.624;2023-05-18T05:26:11;7.00;99.90
7196;DHT22;3639;51.308;5.624;2023-05-18T05:28:37;7.10;99.90
7196;DHT22;3639;51.308;5.624;2023-05-18T05:31:03;7.00;99.90
7196;DHT22;3639;51.308;5.624;2023-05-18T05:33:28;7.10;99.90
7196;DHT22;3639;51.308;5.624;2023-05-18T05:35:54;7.10;99.90
7196;DHT22;3639;51.308;5.624;2023-05-18T05:38:19;7.10;99.90
7196;DHT22;3639;51.308;5.624;2023-05-18T05:40:45;7.20;99.90
7196;DHT22;3639;51.308;5.624;2023-05-18T05:43:11;7.10;99.90
7196;DHT22;3639;51.308;5.624;2023-05-18T05:45:36;7.20;99.90
7196;DHT22;3639;51.308;5.624;2023-05-18T05:48:03;7.20;99.90
7196;DHT22;3639;51.308;5.624;2023-05-18T05:50:28;7.30;99.90
7196;DHT22;3639;51.308;5.624;2023-05-18T05:52:54;7.30;99.90
7196;DHT22;3639;51.308;5.624;2023-05-18T05:55:20;7.40;99.90
7196;DHT22;3639;51.308;5.624;2023-05-18T05:57:47;7.50;99.90
7196;DHT22;3639;51.308;5.624;2023-05-18T06:00:12;7.60;99.90
7196;DHT22;3639;51.308;5.624;2023-05-18T06:02:38;7.70;99.90
7196;DHT22;3639;51.308;5.624;2023-05-18T06:05:05;7.70;99.90
7196;DHT22;3639;51.308;5.624;2023-05-18T06:07:32;7.80;99.90
7196;DHT22;3639;51.308;5.624;2023-05-18T06:09:57;7.90;99.90
7196;DHT22;3639;51.308;5.624;2023-05-18T06:12:23;8.00;99.90
7196;DHT22;3639;51.308;5.624;2023-05-18T06:14:48;7.90;99.90
7196;DHT22;3639;51.308;5.624;2023-05-18T06:17:17;8.00;99.90
7196;DHT22;3639;51.308;5.624;2023-05-18T06:19:42;8.00;99.90
7196;DHT22;3639;51.308;5.624;2023-05-18T06:22:08;8.10;99.90
7196;DHT22;3639;51.308;5.624;2023-05-18T06:24:33;8.10;99.90
7196;DHT22;3639;51.308;5.624;2023-05-18T06:26:59;8.10;99.90
7196;DHT22;3639;51.308;5.624;2023-05-18T06:29:25;8.10;99.90
7196;DHT22;3639;51.308;5.624;2023-05-18T06:31:50;8.10;99.90
7196;DHT22;3639;51.308;5.624;2023-05-18T06:34:16;8.20;99.90
7196;DHT22;3639;51.308;5.624;2023-05-18T06:36:41;8.30;99.90
7196;DHT22;3639;51.308;5.624;2023-05-18T06:39:07;8.30;99.90
7196;DHT22;3639;51.308;5.624;2023-05-18T06:41:33;8.40;99.90
7196;DHT22;3639;51.308;5.624;2023-05-18T06:43:59;8.40;99.90
7196;DHT22;3639;51.308;5.624;2023-05-18T06:46:25;8.40;99.90
7196;DHT22;3639;51.308;5.624;2023-05-18T06:48:52;8.50;99.90
7196;DHT22;3639;51.308;5.624;2023-05-18T06:51:18;8.50;99.90
7196;DHT22;3639;51.308;5.624;2023-05-18T06:53:43;8.60;99.90
7196;DHT22;3639;51.308;5.624;2023-05-18T06:56:09;8.60;99.90
7196;DHT22;3639;51.308;5.624;2023-05-18T06:58:39;8.70;99.90
7196;DHT22;3639;51.308;5.624;2023-05-18T07:01:05;8.80;99.90
7196;DHT22;3639;51.308;5.624;2023-05-18T07:03:30;8.90;99.90
7196;DHT22;3639;51.308;5.624;2023-05-18T07:05:57;9.00;99.90
7196;DHT22;3639;51.308;5.624;2023-05-18T07:08:23;9.20;99.90
7196;DHT22;3639;51.308;5.624;2023-05-18T07:10:49;9.30;99.90
7196;DHT22;3639;51.308;5.624;2023-05-18T07:13:15;9.50;99.90
7196;DHT22;3639;51.308;5.624;2023-05-18T07:15:40;9.60;99.90
7196;DHT22;3639;51.308;5.624;2023-05-18T07:18:06;9.60;99.90
7196;DHT22;3639;51.308;5.624;2023-05-18T07:20:32;9.60;99.90
7196;DHT22;3639;51.308;5.624;2023-05-18T07:22:57;9.70;99.90
7196;DHT22;3639;51.308;5.624;2023-05-18T07:25:23;9.90;99.90
7196;DHT22;3639;51.308;5.624;2023-05-18T07:27:49;10.00;99.90
7196;DHT22;3639;51.308;5.624;2023-05-18T07:30:16;10.10;99.90
7196;DHT22;3639;51.308;5.624;2023-05-18T07:32:42;10.30;99.90
7196;DHT22;3639;51.308;5.624;2023-05-18T07:35:09;10.30;99.90
7196;DHT22;3639;51.308;5.624;2023-05-18T07:37:35;10.40;99.90
7196;DHT22;3639;51.308;5.624;2023-05-18T07:40:01;10.50;99.90
7196;DHT22;3639;51.308;5.624;2023-05-18T07:42:28;10.60;99.90
7196;DHT22;3639;51.308;5.624;2023-05-18T07:44:54;10.70;99.90
7196;DHT22;3639;51.308;5.624;2023-05-18T07:47:19;10.90;99.90
7196;DHT22;3639;51.308;5.624;2023-05-18T07:49:46;11.10;99.90
7196;DHT22;3639;51.308;5.624;2023-05-18T07:52:12;11.30;99.90
7196;DHT22;3639;51.308;5.624;2023-05-18T07:54:38;11.60;99.90
7196;DHT22;3639;51.308;5.624;2023-05-18T07:57:04;11.80;99.90
7196;DHT22;3639;51.308;5.624;2023-05-18T07:59:29;12.10;99.90
7196;DHT22;3639;51.308;5.624;2023-05-18T08:01:55;12.40;99.90
7196;DHT22;3639;51.308;5.624;2023-05-18T08:04:23;12.30;99.90
7196;DHT22;3639;51.308;5.624;2023-05-18T08:06:49;12.00;99.90
7196;DHT22;3639;51.308;5.624;2023-05-18T08:09:14;12.10;99.90
7196;DHT22;3639;51.308;5.624;2023-05-18T08:11:41;12.40;99.90
7196;DHT22;3639;51.308;5.624;2023-05-18T08:14:07;12.50;99.90
7196;DHT22;3639;51.308;5.624;2023-05-18T08:16:32;12.80;99.90
7196;DHT22;3639;51.308;5.624;2023-05-18T08:19:02;13.20;99.90
7196;DHT22;3639;51.308;5.624;2023-05-18T08:21:27;13.40;99.90
7196;DHT22;3639;51.308;5.624;2023-05-18T08:23:54;13.30;99.90
7196;DHT22;3639;51.308;5.624;2023-05-18T08:26:20;13.30;99.90
7196;DHT22;3639;51.308;5.624;2023-05-18T08:28:46;13.20;99.90
7196;DHT22;3639;51.308;5.624;2023-05-18T08:31:13;13.30;99.90
7196;DHT22;3639;51.308;5.624;2023-05-18T08:33:39;13.20;99.90
7196;DHT22;3639;51.308;5.624;2023-05-18T08:36:05;13.20;99.90
7196;DHT22;3639;51.308;5.624;2023-05-18T08:38:30;13.30;99.90
7196;DHT22;3639;51.308;5.624;2023-05-18T08:41:20;13.30;99.90
7196;DHT22;3639;51.308;5.624;2023-05-18T08:43:53;13.50;99.90
7196;DHT22;3639;51.308;5.624;2023-05-18T08:46:34;13.70;99.50
7196;DHT22;3639;51.308;5.624;2023-05-18T08:49:00;13.80;99.90
7196;DHT22;3639;51.308;5.624;2023-05-18T08:51:29;13.50;98.60
7196;DHT22;3639;51.308;5.624;2023-05-18T08:53:57;13.40;99.90
7196;DHT22;3639;51.308;5.624;2023-05-18T08:56:24;13.40;99.90
7196;DHT22;3639;51.308;5.624;2023-05-18T08:58:54;13.50;99.70
7196;DHT22;3639;51.308;5.624;2023-05-18T09:01:20;13.60;99.50
7196;DHT22;3639;51.308;5.624;2023-05-18T09:03:48;13.30;97.80
7196;DHT22;3639;51.308;5.624;2023-05-18T09:06:14;13.40;98.60
7196;DHT22;3639;51.308;5.624;2023-05-18T09:08:40;13.50;98.40
7196;DHT22;3639;51.308;5.624;2023-05-18T09:11:07;13.50;97.60
7196;DHT22;3639;51.308;5.624;2023-05-18T09:13:33;13.70;96.90
7196;DHT22;3639;51.308;5.624;2023-05-18T09:15:58;13.90;97.20
7196;DHT22;3639;51.308;5.624;2023-05-18T09:18:24;14.10;96.40
7196;DHT22;3639;51.308;5.624;2023-05-18T09:20:49;14.30;95.70
7196;DHT22;3639;51.308;5.624;2023-05-18T09:23:15;14.40;95.10
7196;DHT22;3639;51.308;5.624;2023-05-18T09:25:43;14.40;96.30
7196;DHT22;3639;51.308;5.624;2023-05-18T09:28:11;14.70;96.00
7196;DHT22;3639;51.308;5.624;2023-05-18T09:30:40;14.70;95.60
7196;DHT22;3639;51.308;5.624;2023-05-18T09:33:15;14.90;96.30
7196;DHT22;3639;51.308;5.624;2023-05-18T09:35:41;14.90;95.50
7196;DHT22;3639;51.308;5.624;2023-05-18T09:38:07;15.10;93.90
7196;DHT22;3639;51.308;5.624;2023-05-18T09:40:33;15.10;95.10
7196;DHT22;3639;51.308;5.624;2023-05-18T09:43:05;15.30;94.30
7196;DHT22;3639;51.308;5.624;2023-05-18T09:45:31;15.20;94.90
7196;DHT22;3639;51.308;5.624;2023-05-18T09:47:57;14.90;93.50
7196;DHT22;3639;51.308;5.624;2023-05-18T09:50:23;15.10;94.20
7196;DHT22;3639;51.308;5.624;2023-05-18T09:52:49;15.20;94.40
7196;DHT22;3639;51.308;5.624;2023-05-18T09:55:15;15.00;93.30
7196;DHT22;3639;51.308;5.624;2023-05-18T09:57:49;14.90;94.60
7196;DHT22;3639;51.308;5.624;2023-05-18T10:00:16;15.00;95.50
7196;DHT22;3639;51.308;5.624;2023-05-18T10:02:45;15.10;93.70
7196;DHT22;3639;51.308;5.624;2023-05-18T10:05:23;14.60;93.70
7196;DHT22;3639;51.308;5.624;2023-05-18T10:07:52;14.60;94.30
7196;DHT22;3639;51.308;5.624;2023-05-18T10:10:20;14.40;94.20
7196;DHT22;3639;51.308;5.624;2023-05-18T10:12:47;14.30;94.40
7196;DHT22;3639;51.308;5.624;2023-05-18T10:15:17;14.50;94.60
7196;DHT22;3639;51.308;5.624;2023-05-18T10:17:44;14.90;94.10
7196;DHT22;3639;51.308;5.624;2023-05-18T10:20:14;15.30;94.30
7196;DHT22;3639;51.308;5.624;2023-05-18T10:22:41;15.30;94.10
7196;DHT22;3639;51.308;5.624;2023-05-18T10:25:10;15.30;93.60
7196;DHT22;3639;51.308;5.624;2023-05-18T10:27:36;15.00;93.30
7196;DHT22;3639;51.308;5.624;2023-05-18T10:30:06;15.10;94.00
7196;DHT22;3639;51.308;5.624;2023-05-18T10:32:34;15.40;94.10
7196;DHT22;3639;51.308;5.624;2023-05-18T10:35:02;15.20;94.30
7196;DHT22;3639;51.308;5.624;2023-05-18T10:37:28;15.00;93.60
7196;DHT22;3639;51.308;5.624;2023-05-18T10:39:55;15.30;94.20
7196;DHT22;3639;51.308;5.624;2023-05-18T10:42:24;15.50;92.60
7196;DHT22;3639;51.308;5.624;2023-05-18T10:44:52;15.50;92.70
7196;DHT22;3639;51.308;5.624;2023-05-18T10:47:18;15.40;92.20
7196;DHT22;3639;51.308;5.624;2023-05-18T10:49:48;15.40;93.10
7196;DHT22;3639;51.308;5.624;2023-05-18T10:52:16;15.60;94.30
7196;DHT22;3639;51.308;5.624;2023-05-18T10:54:42;15.50;93.30
7196;DHT22;3639;51.308;5.624;2023-05-18T10:57:13;15.70;93.80
7196;DHT22;3639;51.308;5.624;2023-05-18T10:59:42;15.60;93.60
7196;DHT22;3639;51.308;5.624;2023-05-18T11:02:09;15.60;93.00
7196;DHT22;3639;51.308;5.624;2023-05-18T11:04:38;15.60;92.30
7196;DHT22;3639;51.308;5.624;2023-05-18T11:07:08;15.70;92.70
7196;DHT22;3639;51.308;5.624;2023-05-18T11:09:34;15.70;93.50
7196;DHT22;3639;51.308;5.624;2023-05-18T11:12:00;15.60;93.20
7196;DHT22;3639;51.308;5.624;2023-05-18T11:14:30;15.60;93.70
7196;DHT22;3639;51.308;5.624;2023-05-18T11:17:25;16.00;92.30
7196;DHT22;3639;51.308;5.624;2023-05-18T11:27:58;15.90;91.50
7196;DHT22;3639;51.308;5.624;2023-05-18T11:33:21;16.20;91.80
7196;DHT22;3639;51.308;5.624;2023-05-18T11:36:08;16.30;91.20
7196;DHT22;3639;51.308;5.624;2023-05-18T11:38:54;16.40;91.30
7196;DHT22;3639;51.308;5.624;2023-05-18T11:41:37;16.10;91.60
7196;DHT22;3639;51.308;5.624;2023-05-18T11:44:16;16.10;91.40
7196;DHT22;3639;51.308;5.624;2023-05-18T11:49:24;15.70;91.80
7196;DHT22;3639;51.308;5.624;2023-05-18T11:52:07;15.70;91.80
7196;DHT22;3639;51.308;5.624;2023-05-18T11:54:39;16.00;90.50
7196;DHT22;3639;51.308;5.624;2023-05-18T11:57:06;16.00;91.10
7196;DHT22;3639;51.308;5.624;2023-05-18T11:59:40;15.80;91.40
7196;DHT22;3639;51.308;5.624;2023-05-18T12:02:08;16.00;90.80
7196;DHT22;3639;51.308;5.624;2023-05-18T12:04:41;15.80;90.90
7196;DHT22;3639;51.308;5.624;2023-05-18T12:07:07;15.80;90.60
7196;DHT22;3639;51.308;5.624;2023-05-18T12:09:33;16.00;90.90
7196;DHT22;3639;51.308;5.624;2023-05-18T12:12:00;16.00;90.60
7196;DHT22;3639;51.308;5.624;2023-05-18T12:14:26;16.00;90.30
7196;DHT22;3639;51.308;5.624;2023-05-18T12:16:53;16.10;90.10
7196;DHT22;3639;51.308;5.624;2023-05-18T12:19:21;16.20;88.50
7196;DHT22;3639;51.308;5.624;2023-05-18T12:21:47;16.30;90.50
7196;DHT22;3639;51.308;5.624;2023-05-18T12:24:13;16.30;90.50
7196;DHT22;3639;51.308;5.624;2023-05-18T12:26:39;16.30;90.90
7196;DHT22;3639;51.308;5.624;2023-05-18T12:29:06;16.40;90.60
7196;DHT22;3639;51.308;5.624;2023-05-18T12:31:31;16.30;90.60
7196;DHT22;3639;51.308;5.624;2023-05-18T12:33:57;16.00;90.10
7196;DHT22;3639;51.308;5.624;2023-05-18T12:36:22;15.90;91.00
7196;DHT22;3639;51.308;5.624;2023-05-18T12:38:50;16.00;91.90
7196;DHT22;3639;51.308;5.624;2023-05-18T12:41:26;16.20;90.70
7196;DHT22;3639;51.308;5.624;2023-05-18T12:43:52;16.10;91.00
7196;DHT22;3639;51.308;5.624;2023-05-18T12:46:22;16.00;91.50
7196;DHT22;3639;51.308;5.624;2023-05-18T12:48:55;16.10;90.90
7196;DHT22;3639;51.308;5.624;2023-05-18T12:51:21;16.20;91.10
7196;DHT22;3639;51.308;5.624;2023-05-18T12:53:48;16.50;90.70
7196;DHT22;3639;51.308;5.624;2023-05-18T12:56:13;16.60;90.80
7196;DHT22;3639;51.308;5.624;2023-05-18T12:58:39;16.60;91.00
7196;DHT22;3639;51.308;5.624;2023-05-18T13:01:07;16.50;90.30
7196;DHT22;3639;51.308;5.624;2023-05-18T13:03:33;16.30;90.50
7196;DHT22;3639;51.308;5.624;2023-05-18T13:06:06;16.50;91.10
7196;DHT22;3639;51.308;5.624;2023-05-18T13:08:33;16.80;90.30
7196;DHT22;3639;51.308;5.624;2023-05-18T13:11:03;16.80;90.20
7196;DHT22;3639;51.308;5.624;2023-05-18T13:13:29;16.70;89.80
7196;DHT22;3639;51.308;5.624;2023-05-18T13:15:55;16.50;90.10
7196;DHT22;3639;51.308;5.624;2023-05-18T13:18:24;16.40;90.10
7196;DHT22;3639;51.308;5.624;2023-05-18T13:20:52;16.30;90.90
7196;DHT22;3639;51.308;5.624;2023-05-18T13:23:20;16.30;90.40
7196;DHT22;3639;51.308;5.624;2023-05-18T13:25:46;16.20;90.50
7196;DHT22;3639;51.308;5.624;2023-05-18T13:28:12;16.40;90.10
7196;DHT22;3639;51.308;5.624;2023-05-18T13:30:39;16.40;90.20
7196;DHT22;3639;51.308;5.624;2023-05-18T13:33:06;16.50;90.90
7196;DHT22;3639;51.308;5.624;2023-05-18T13:35:33;16.70;90.00
7196;DHT22;3639;51.308;5.624;2023-05-18T13:37:59;16.70;90.30
7196;DHT22;3639;51.308;5.624;2023-05-18T13:40:25;16.80;90.70
7196;DHT22;3639;51.308;5.624;2023-05-18T13:42:51;16.70;89.60
7196;DHT22;3639;51.308;5.624;2023-05-18T13:45:17;16.70;89.70
7196;DHT22;3639;51.308;5.624;2023-05-18T13:47:42;16.60;89.70
7196;DHT22;3639;51.308;5.624;2023-05-18T13:50:12;16.40;89.90
7196;DHT22;3639;51.308;5.624;2023-05-18T13:52:37;16.40;88.70
7196;DHT22;3639;51.308;5.624;2023-05-18T13:55:04;16.20;88.60
7196;DHT22;3639;51.308;5.624;2023-05-18T13:57:30;16.30;90.00
7196;DHT22;3639;51.308;5.624;2023-05-18T13:59:57;16.50;89.20
7196;DHT22;3639;51.308;5.624;2023-05-18T14:02:24;16.70;90.00
7196;DHT22;3639;51.308;5.624;2023-05-18T14:04:50;16.80;90.80
7196;DHT22;3639;51.308;5.624;2023-05-18T14:07:17;16.90;89.20
7196;DHT22;3639;51.308;5.624;2023-05-18T14:09:42;16.90;89.80
7196;DHT22;3639;51.308;5.624;2023-05-18T14:12:08;16.80;89.70
7196;DHT22;3639;51.308;5.624;2023-05-18T14:14:35;16.80;89.40
7196;DHT22;3639;51.308;5.624;2023-05-18T14:17:01;16.90;89.60
7196;DHT22;3639;51.308;5.624;2023-05-18T14:19:27;16.80;88.00
7196;DHT22;3639;51.308;5.624;2023-05-18T14:21:53;16.70;90.40
7196;DHT22;3639;51.308;5.624;2023-05-18T14:24:18;16.90;89.60
7196;DHT22;3639;51.308;5.624;2023-05-18T14:26:44;17.00;87.50
7196;DHT22;3639;51.308;5.624;2023-05-18T14:29:10;16.90;87.90
7196;DHT22;3639;51.308;5.624;2023-05-18T14:31:35;16.70;89.30
7196;DHT22;3639;51.308;5.624;2023-05-18T14:34:01;16.80;89.70
7196;DHT22;3639;51.308;5.624;2023-05-18T14:36:26;16.90;89.30
7196;DHT22;3639;51.308;5.624;2023-05-18T14:38:52;17.10;87.30
7196;DHT22;3639;51.308;5.624;2023-05-18T14:41:18;17.00;87.30
7196;DHT22;3639;51.308;5.624;2023-05-18T14:43:43;16.80;86.90
7196;DHT22;3639;51.308;5.624;2023-05-18T14:46:10;16.70;88.40
7196;DHT22;3639;51.308;5.624;2023-05-18T14:48:36;16.80;88.30
7196;DHT22;3639;51.308;5.624;2023-05-18T14:51:02;16.70;87.30
7196;DHT22;3639;51.308;5.624;2023-05-18T14:53:27;16.70;88.40
7196;DHT22;3639;51.308;5.624;2023-05-18T14:55:53;16.70;89.80
7196;DHT22;3639;51.308;5.624;2023-05-18T14:58:18;16.80;88.80
7196;DHT22;3639;51.308;5.624;2023-05-18T15:00:44;16.90;88.50
7196;DHT22;3639;51.308;5.624;2023-05-18T15:03:10;17.00;88.60
7196;DHT22;3639;51.308;5.624;2023-05-18T15:05:35;17.20;87.50
7196;DHT22;3639;51.308;5.624;2023-05-18T15:08:02;17.00;89.30
7196;DHT22;3639;51.308;5.624;2023-05-18T15:10:28;16.90;89.10
7196;DHT22;3639;51.308;5.624;2023-05-18T15:12:54;16.90;88.70
7196;DHT22;3639;51.308;5.624;2023-05-18T15:15:19;16.90;89.00
7196;DHT22;3639;51.308;5.624;2023-05-18T15:17:45;17.00;89.20
7196;DHT22;3639;51.308;5.624;2023-05-18T15:20:10;17.00;89.10
7196;DHT22;3639;51.308;5.624;2023-05-18T15:22:36;17.10;88.90
7196;DHT22;3639;51.308;5.624;2023-05-18T15:25:05;17.00;87.60
7196;DHT22;3639;51.308;5.624;2023-05-18T15:27:34;17.00;88.90
7196;DHT22;3639;51.308;5.624;2023-05-18T15:30:00;17.10;88.20
7196;DHT22;3639;51.308;5.624;2023-05-18T15:32:26;17.10;89.40
7196;DHT22;3639;51.308;5.624;2023-05-18T15:34:51;16.90;89.00
7196;DHT22;3639;51.308;5.624;2023-05-18T15:37:17;16.90;89.30
7196;DHT22;3639;51.308;5.624;2023-05-18T15:39:43;16.80;88.60
7196;DHT22;3639;51.308;5.624;2023-05-18T15:42:09;16.70;89.90
7196;DHT22;3639;51.308;5.624;2023-05-18T15:44:34;16.90;90.10
7196;DHT22;3639;51.308;5.624;2023-05-18T15:47:00;16.90;90.00
7196;DHT22;3639;51.308;5.624;2023-05-18T15:49:26;16.80;88.60
7196;DHT22;3639;51.308;5.624;2023-05-18T15:51:52;16.70;90.10
7196;DHT22;3639;51.308;5.624;2023-05-18T15:54:17;16.90;90.20
7196;DHT22;3639;51.308;5.624;2023-05-18T15:56:43;16.90;88.70
7196;DHT22;3639;51.308;5.624;2023-05-18T15:59:08;16.90;89.20
7196;DHT22;3639;51.308;5.624;2023-05-18T16:01:34;16.90;88.20
7196;DHT22;3639;51.308;5.624;2023-05-18T16:04:00;16.90;88.70
7196;DHT22;3639;51.308;5.624;2023-05-18T16:06:27;16.90;89.40
7196;DHT22;3639;51.308;5.624;2023-05-18T16:08:52;16.80;88.20
7196;DHT22;3639;51.308;5.624;2023-05-18T16:11:18;16.60;88.20
7196;DHT22;3639;51.308;5.624;2023-05-18T16:13:43;16.60;89.20
7196;DHT22;3639;51.308;5.624;2023-05-18T16:16:09;16.60;88.90
7196;DHT22;3639;51.308;5.624;2023-05-18T16:18:38;16.70;88.50
7196;DHT22;3639;51.308;5.624;2023-05-18T16:21:03;16.50;89.30
7196;DHT22;3639;51.308;5.624;2023-05-18T16:23:29;16.40;89.90
7196;DHT22;3639;51.308;5.624;2023-05-18T16:25:58;16.30;88.90